Accueil
METAR-TAF:

METAR-TAF

Aéroports :

Aéroport de Béziers-Cap d'Agde

Béziers, France

latitude: 43-19N, longitude: 003-21E, altitude: 17 m

Observation

Le bulletin a été fait il y a 44 minutes, à 20:30 UTC
Vent calme
Température 21°C
Humidité 78%
Pression 1015 hPa
Visibilité 10 km ou plus
pas de nuages en-dessous de 1500 mètres et pas de cumulonimbus.

METAR: LFMU 162030Z AUTO 00000KT CAVOK 21/17 Q1015 NOSIG

Heure: 23:14 (21:14 UTC)

Prévision

Le bulletin a été fait il y a 7 heures et 14 minutes, à 14:00 UTC
Prévision valable du 16 à 15 UTC au 17 à 15 UTC
Vent 8 kt de sud/sud-est
Visibilité 10 km ou plus
pas de nuages en-dessous de 1500 mètres et pas de cumulonimbus.
Evoluant progressivement
du 17 à 00 UTC au 17 à 02 UTC
Vent 12 kt de ouest
Evoluant progressivement
du 17 à 04 UTC au 17 à 06 UTC
Nuages fragmentés à une hauteur de 1500 ft

TAF: LFMU 161400Z 1615/1715 15008KT CAVOK BECMG 1700/1702 28012KT BECMG 1704/1706 BKN015

Observations et prévisions météorologiques de plus de 4000 aéroports (messages METAR et TAF).

Les stations disponibles sont représentées par des disques jaunes et rouges sur la carte.

Passer la souris dessus pour voir le nom de la station.

Cliquer dessus pour voir les observations et prévisions météorologiques.

Pour changer de carte: cliquez sur les boutons verts avec une croix noire pour zoomer, sur le bouton vert avec un tiret pour effectuer un zoom arrière, ou sur les flèches vertes pour les cartes adjacentes.


METAR-TAF: